This is the latest recevied weather packets stored in our database for station/object OK2ILA-6. If no packets are shown the sender has not sent any weather packets the latest 10 day(s).
| Time | Temp. | Humidity | Pressure | Rain* | Wind** | Luminosity | Snow |
|---|---|---|---|---|---|---|---|
| 1777511403 | -1.11° C | 78% | 1029.6 hPa | - | - | - | - |
| 1777507803 | -0.56° C | 76% | 1029.3 hPa | - | - | - | - |
| 1777492803 | 4.44° C | 54% | 1028.2 hPa | - | - | - | - |
| 1777490403 | 5° C | 50% | 1027.9 hPa | - | - | - | - |
| 1777487403 | 6.67° C | 45% | 1027.3 hPa | - | - | - | - |
| 1777479003 | 8.89° C | 34% | 1026 hPa | - | - | - | - |
| 1777473003 | 10.56° C | 30% | 1025.5 hPa | - | - | - | - |
| 1777470003 | 11.11° C | 29% | 1025.3 hPa | - | - | - | - |
| 1777468803 | 11.11° C | 28% | 1025.2 hPa | - | - | - | - |
| 1777465803 | 11.11° C | 34% | 1025.2 hPa | - | - | - | - |
| 1777465203 | 11.11° C | 34% | 1025.2 hPa | - | - | - | - |
| 1777464603 | 10.56° C | 34% | 1025.2 hPa | - | - | - | - |
| 1777462803 | 10.56° C | 36% | 1025.2 hPa | - | - | - | - |
| 1777462203 | 11.11° C | 38% | 1025 hPa | - | - | - | - |
| 1777461603 | 11.11° C | 38% | 1025.2 hPa | - | - | - | - |
| 1777460402 | 11.11° C | 41% | 1025.3 hPa | - | - | - | - |
| 1777459203 | 10.56° C | 42% | 1025.4 hPa | - | - | - | - |
| 1777458002 | 11.11° C | 42% | 1025.4 hPa | - | - | - | - |
| 1777457402 | 11.11° C | 42% | 1025.3 hPa | - | - | - | - |
| 1777455603 | 11.11° C | 44% | 1025.4 hPa | - | - | - | - |
| 1777455002 | 10.56° C | 46% | 1025.4 hPa | - | - | - | - |
| 1777454402 | 10.56° C | 48% | 1025.4 hPa | - | - | - | - |
| 1777453803 | 10° C | 48% | 1025.4 hPa | - | - | - | - |
| 1777453203 | 10° C | 48% | 1025.2 hPa | - | - | - | - |
| 1777452603 | 10° C | 50% | 1025.4 hPa | - | - | - | - |
* Rain since midnight (hover to see other rain measurements)
** Current wind speed in m/s (hover to see current wind gust speed)